Time;durP1;ratioP1;P1;durP2;ratioP2;P2;SDS_P1;SDS_P2;PMS_P1;PMS_P2;Temp;Humidity;BMP_temperature;BMP_pressure;BME280_temperature;BME280_humidity;BME280_pressure;Samples;Min_cycle;Max_cycle;Signal;HPM_P1;HPM_P2
2021/05/18 00:00:57;;;;;;;1.57;1.47;;;24.40;62.50;;;;;;5074236;28;20531;-86
2021/05/18 00:03:24;;;;;;;1.60;1.13;;;24.40;62.50;;;;;;5073873;28;20444;-86
2021/05/18 00:05:53;;;;;;;2.03;1.20;;;24.30;62.30;;;;;;5074014;28;20478;-86
2021/05/18 00:08:22;;;;;;;1.70;1.60;;;24.40;62.50;;;;;;5074009;28;20481;-86
2021/05/18 00:13:35;;;;;;;1.30;1.20;;;24.30;62.30;;;;;;5074076;28;20470;-86
2021/05/18 00:16:03;;;;;;;1.40;1.30;;;24.30;62.30;;;;;;5073031;28;20442;-85
2021/05/18 00:18:31;;;;;;;1.40;1.30;;;24.30;62.30;;;;;;5073609;28;20958;-86
2021/05/18 00:20:58;;;;;;;1.83;1.40;;;24.40;62.50;;;;;;5073750;28;20444;-85
2021/05/18 00:23:24;;;;;;;1.53;1.43;;;24.30;62.30;;;;;;5074016;28;20442;-85
2021/05/18 00:25:51;;;;;;;1.77;1.10;;;24.30;62.30;;;;;;5073452;28;20457;-85
2021/05/18 00:28:17;;;;;;;1.40;1.30;;;24.30;62.40;;;;;;5073728;28;20492;-86
2021/05/18 00:30:44;;;;;;;1.10;1.00;;;24.30;62.40;;;;;;5073875;28;20453;-86
2021/05/18 00:33:14;;;;;;;1.53;1.43;;;24.30;62.40;;;;;;5073448;28;20487;-86
2021/05/18 00:35:41;;;;;;;1.60;1.50;;;24.30;62.40;;;;;;5073602;28;20442;-86
2021/05/18 00:38:08;;;;;;;1.33;1.23;;;24.30;62.40;;;;;;5073436;28;20452;-86
2021/05/18 00:40:34;;;;;;;1.27;1.17;;;24.30;62.40;;;;;;5073768;28;20506;-86
2021/05/18 00:43:00;;;;;;;1.33;1.23;;;24.30;62.40;;;;;;5073256;28;20462;-86
2021/05/18 00:45:30;;;;;;;1.47;1.37;;;24.30;62.60;;;;;;5073532;28;20795;-86
2021/05/18 00:47:57;;;;;;;1.30;1.20;;;24.30;62.40;;;;;;5073329;28;20832;-85
2021/05/18 00:50:24;;;;;;;1.40;1.30;;;24.30;62.40;;;;;;5073677;28;20440;-86
2021/05/18 00:52:51;;;;;;;1.40;1.30;;;24.30;63.30;;;;;;5073164;28;20448;-86
2021/05/18 00:55:22;;;;;;;1.63;1.53;;;24.20;62.40;;;;;;5073345;28;20435;-85
2021/05/18 01:00:36;;;;;;;1.30;1.20;;;24.30;62.50;;;;;;5055516;28;20528;-86
2021/05/18 01:03:02;;;;;;;1.70;1.50;;;24.20;62.30;;;;;;5073161;28;20446;-85
2021/05/18 01:08:15;;;;;;;1.50;1.40;;;24.20;62.40;;;;;;5073247;28;20985;-88
2021/05/18 01:10:43;;;;;;;1.40;1.30;;;24.20;62.40;;;;;;5073110;28;20946;-86
2021/05/18 01:13:10;;;;;;;1.53;1.43;;;24.20;62.40;;;;;;5073384;28;20772;-85
2021/05/18 01:15:38;;;;;;;2.03;1.83;;;24.20;62.40;;;;;;5073135;28;20438;-86
2021/05/18 01:18:05;;;;;;;1.63;1.53;;;24.20;62.40;;;;;;5073108;28;20445;-86
2021/05/18 01:20:31;;;;;;;1.53;1.43;;;24.20;62.40;;;;;;5073164;28;20448;-85
2021/05/18 01:22:58;;;;;;;1.80;1.70;;;24.20;62.40;;;;;;5073237;28;20441;-85
2021/05/18 01:25:25;;;;;;;1.50;1.40;;;24.20;62.40;;;;;;5072816;28;20481;-86
2021/05/18 01:27:51;;;;;;;1.40;1.30;;;24.20;62.40;;;;;;5076292;28;20816;-85
2021/05/18 01:30:18;;;;;;;1.40;1.30;;;24.20;62.40;;;;;;5077041;28;20449;-86
2021/05/18 01:32:44;;;;;;;1.53;1.43;;;24.20;62.40;;;;;;5077023;28;20451;-86
2021/05/18 01:35:12;;;;;;;1.40;1.30;;;24.20;62.40;;;;;;5077011;28;20445;-86
2021/05/18 01:37:40;;;;;;;1.53;1.43;;;24.20;62.40;;;;;;5076703;28;20585;-86
2021/05/18 01:40:27;;;;;;;1.60;1.50;;;24.20;62.40;;;;;;5076880;28;20439;-86
2021/05/18 01:42:54;;;;;;;1.50;1.40;;;24.20;62.40;;;;;;5076863;28;20444;-86
2021/05/18 01:45:23;;;;;;;1.30;1.20;;;24.20;62.30;;;;;;5076461;28;20943;-85
2021/05/18 01:47:51;;;;;;;1.67;1.57;;;24.20;62.30;;;;;;5076633;28;20491;-86
2021/05/18 01:50:20;;;;;;;1.97;1.63;;;24.20;62.40;;;;;;5076506;28;20456;-86
2021/05/18 01:52:46;;;;;;;1.70;1.60;;;24.20;62.40;;;;;;5076513;28;20445;-86
2021/05/18 01:55:18;;;;;;;1.80;1.70;;;24.20;62.30;;;;;;5076509;28;20443;-85
2021/05/18 01:57:44;;;;;;;1.30;1.20;;;24.20;62.30;;;;;;5076645;28;20934;-86
2021/05/18 02:00:13;;;;;;;1.73;1.63;;;24.20;62.30;;;;;;5076216;28;20974;-86
2021/05/18 02:02:40;;;;;;;2.00;1.90;;;24.10;62.30;;;;;;5076131;28;20973;-86
2021/05/18 02:05:09;;;;;;;2.17;1.57;;;24.10;62.20;;;;;;5076446;28;20453;-86
2021/05/18 02:07:37;;;;;;;1.90;1.80;;;24.20;62.30;;;;;;5076158;28;20511;-85
2021/05/18 02:10:05;;;;;;;1.57;1.47;;;24.30;62.40;;;;;;5076218;28;20951;-86
2021/05/18 02:12:33;;;;;;;1.77;1.67;;;24.20;62.30;;;;;;5076048;28;20441;-86
2021/05/18 02:15:04;;;;;;;1.60;1.50;;;24.20;62.30;;;;;;5076006;28;20438;-86
2021/05/18 02:17:34;;;;;;;1.67;1.47;;;24.10;62.20;;;;;;5076306;28;20484;-86
2021/05/18 02:20:16;;;;;;;2.00;1.77;;;24.10;62.20;;;;;;5076189;28;20438;-86
2021/05/18 02:25:26;;;;;;;1.73;1.63;;;24.10;62.20;;;;;;5052751;28;20465;-85
2021/05/18 02:27:54;;;;;;;1.60;1.50;;;24.10;62.20;;;;;;5075922;28;20485;-86
2021/05/18 02:30:22;;;;;;;1.63;1.53;;;24.10;62.20;;;;;;5075957;28;20483;-86
2021/05/18 02:32:49;;;;;;;1.47;1.37;;;24.10;62.20;;;;;;5075566;28;20445;-86
2021/05/18 02:35:16;;;;;;;1.60;1.50;;;24.20;62.30;;;;;;5076309;28;20501;-86
2021/05/18 02:37:44;;;;;;;1.90;1.60;;;24.10;62.20;;;;;;5074928;28;20506;-86
2021/05/18 02:40:18;;;;;;;1.47;1.37;;;24.10;62.20;;;;;;5075516;28;20444;-85
2021/05/18 02:42:46;;;;;;;1.60;1.50;;;24.10;62.30;;;;;;5075767;28;20464;-86
2021/05/18 02:45:18;;;;;;;1.67;1.57;;;24.10;62.30;;;;;;5075443;28;20432;-85
2021/05/18 02:50:29;;;;;;;1.30;1.20;;;24.10;62.20;;;;;;5075813;28;20556;-86
2021/05/18 02:52:56;;;;;;;1.60;1.50;;;24.10;62.30;;;;;;5075257;28;20952;-86
2021/05/18 02:55:27;;;;;;;1.50;1.40;;;24.10;62.30;;;;;;5075472;28;20444;-86
2021/05/18 02:57:53;;;;;;;1.60;1.50;;;24.10;62.30;;;;;;5075407;28;20452;-86
2021/05/18 03:00:23;;;;;;;1.60;1.50;;;24.20;62.40;;;;;;5075365;28;20772;-86
2021/05/18 03:02:50;;;;;;;1.60;1.50;;;24.10;62.30;;;;;;5075007;28;20448;-86
2021/05/18 03:05:17;;;;;;;2.30;1.50;;;24.10;62.30;;;;;;5075032;28;20463;-86
2021/05/18 03:07:44;;;;;;;1.80;1.70;;;24.10;62.30;;;;;;5075131;28;20492;-85
2021/05/18 03:10:12;;;;;;;1.47;1.37;;;24.10;62.30;;;;;;5074938;28;20445;-86
2021/05/18 03:12:38;;;;;;;1.60;1.50;;;24.10;62.30;;;;;;5074892;28;20451;-85
2021/05/18 03:15:06;;;;;;;1.47;1.37;;;24.10;62.30;;;;;;5075124;28;20455;-85
2021/05/18 03:17:33;;;;;;;2.10;1.80;;;24.10;62.30;;;;;;5074940;28;20433;-86
2021/05/18 03:20:00;;;;;;;1.70;1.60;;;24.10;62.30;;;;;;5074926;28;20477;-86
2021/05/18 03:22:26;;;;;;;1.50;1.40;;;24.10;62.30;;;;;;5074680;28;20799;-85
2021/05/18 03:24:52;;;;;;;1.87;1.77;;;24.10;62.30;;;;;;5074488;28;21002;-89
2021/05/18 03:27:19;;;;;;;1.57;1.47;;;24.10;62.30;;;;;;5074587;28;20493;-86
2021/05/18 03:29:48;;;;;;;1.50;1.40;;;24.10;63.20;;;;;;5074854;28;20524;-86
2021/05/18 03:34:59;;;;;;;1.57;1.47;;;24.10;62.30;;;;;;5074853;28;20434;-85
2021/05/18 03:37:30;;;;;;;1.87;1.77;;;24.10;62.40;;;;;;5074555;28;20463;-86
2021/05/18 03:40:00;;;;;;;1.40;1.30;;;24.00;62.30;;;;;;5075080;28;20440;-86
2021/05/18 03:42:30;;;;;;;1.40;1.30;;;24.00;62.30;;;;;;5074653;28;20438;-86
2021/05/18 03:45:05;;;;;;;1.60;1.50;;;24.00;62.30;;;;;;5074228;28;20991;-86
2021/05/18 04:04:10;;;;;;;2.10;2.00;;;24.00;62.40;;;;;;5073763;28;20432;-86
2021/05/18 04:12:15;;;;;;;1.83;1.60;;;24.00;62.40;;;;;;5073863;28;20433;-87
2021/05/18 04:17:28;;;;;;;2.77;2.00;;;24.10;62.50;;;;;;5075130;28;20482;-87
2021/05/18 04:20:09;;;;;;;1.50;1.40;;;24.00;62.50;;;;;;5073605;28;20487;-87
2021/05/18 04:22:55;;;;;;;2.10;1.90;;;24.00;62.60;;;;;;5078245;28;20444;-88
2021/05/18 04:49:12;;;;;;;1.80;1.70;;;23.80;62.80;;;;;;5074642;28;20471;-94
2021/05/18 04:51:42;;;;;;;2.20;2.10;;;23.70;63.00;;;;;;5076578;28;20432;-94
2021/05/18 04:59:57;;;;;;;1.60;1.47;;;23.90;63.30;;;;;;5032008;28;20427;-92
2021/05/18 05:07:57;;;;;;;2.00;1.80;;;23.90;63.20;;;;;;5077532;28;20519;-92
2021/05/18 05:12:17;;;;;;;2.13;2.03;;;23.90;63.20;;;;;;5077629;28;20456;-92
2021/05/18 05:15:59;;;;;;;2.17;1.90;;;24.00;63.40;;;;;;5078031;28;20392;-92
2021/05/18 05:18:26;;;;;;;2.70;1.97;;;24.00;63.40;;;;;;5078571;28;20980;-92
2021/05/18 05:20:52;;;;;;;1.90;1.80;;;24.00;63.50;;;;;;5077450;28;20535;-92
2021/05/18 05:23:19;;;;;;;1.60;1.50;;;24.00;63.50;;;;;;5077560;28;20543;-92
2021/05/18 05:25:46;;;;;;;1.87;1.77;;;24.00;63.50;;;;;;5077291;28;20450;-92
2021/05/18 05:28:13;;;;;;;1.33;1.23;;;24.00;63.50;;;;;;5077888;28;20485;-92
2021/05/18 05:30:39;;;;;;;1.70;1.43;;;24.00;63.60;;;;;;5078544;28;20980;-92
2021/05/18 05:33:05;;;;;;;1.83;1.73;;;24.00;63.60;;;;;;5077990;28;20863;-91
2021/05/18 05:35:32;;;;;;;2.67;1.70;;;24.00;63.60;;;;;;5077281;28;20548;-92
2021/05/18 05:37:59;;;;;;;2.10;1.90;;;24.00;63.70;;;;;;5077615;28;20536;-93
2021/05/18 05:40:25;;;;;;;2.63;2.20;;;24.10;63.80;;;;;;5059019;28;20779;-92
2021/05/18 05:42:53;;;;;;;1.87;1.77;;;24.00;63.80;;;;;;5078086;28;20532;-92
2021/05/18 05:45:19;;;;;;;2.00;1.80;;;24.00;63.80;;;;;;5076912;28;20540;-86
2021/05/18 05:47:46;;;;;;;2.57;1.40;;;24.00;63.80;;;;;;5076885;28;20492;-90
2021/05/18 05:50:12;;;;;;;1.80;1.70;;;24.00;63.60;;;;;;5076374;28;20820;-90
2021/05/18 05:52:39;;;;;;;2.00;1.63;;;24.00;63.70;;;;;;5076772;28;20481;-90
2021/05/18 05:55:08;;;;;;;2.13;1.67;;;24.00;63.80;;;;;;5076510;28;20444;-90
2021/05/18 05:57:35;;;;;;;1.63;1.53;;;24.00;63.80;;;;;;5076657;28;20931;-90
2021/05/18 06:00:03;;;;;;;1.13;1.03;;;24.00;63.80;;;;;;5077425;28;20457;-85
2021/05/18 06:02:30;;;;;;;1.37;1.27;;;24.00;63.70;;;;;;5076221;28;20969;-86
2021/05/18 06:04:59;;;;;;;1.53;1.43;;;24.00;63.60;;;;;;5076201;28;20436;-86
2021/05/18 06:07:25;;;;;;;1.27;1.17;;;24.00;63.30;;;;;;5076283;28;20497;-87
2021/05/18 06:09:55;;;;;;;1.60;1.47;;;24.00;63.30;;;;;;5076139;28;20450;-87
2021/05/18 06:12:32;;;;;;;1.70;1.60;;;24.00;63.40;;;;;;5076081;28;20452;-87
2021/05/18 06:15:21;;;;;;;1.83;1.67;;;24.00;63.40;;;;;;5076027;28;20449;-87
2021/05/18 06:18:10;;;;;;;1.60;1.50;;;24.00;63.40;;;;;;5076048;28;20424;-87
2021/05/18 06:43:04;;;;;;;1.67;1.57;;;24.00;63.20;;;;;;5075625;28;20444;-88
2021/05/18 06:48:16;;;;;;;1.80;1.30;;;23.90;63.10;;;;;;5071811;28;20550;-88
2021/05/18 06:50:44;;;;;;;1.77;1.40;;;23.90;63.00;;;;;;5075463;28;20451;-88
2021/05/18 06:53:10;;;;;;;4.50;1.97;;;24.00;63.10;;;;;;5075270;28;20445;-88
2021/05/18 06:55:38;;;;;;;1.37;1.27;;;24.00;63.10;;;;;;5075289;28;20450;-88
2021/05/18 06:58:06;;;;;;;1.57;1.47;;;24.00;63.00;;;;;;5075699;28;20450;-89
2021/05/18 07:00:35;;;;;;;8.03;1.50;;;24.00;63.10;;;;;;5075416;28;20494;-89
2021/05/18 07:03:03;;;;;;;1.70;1.30;;;24.00;63.00;;;;;;5075538;28;20463;-88
2021/05/18 07:05:35;;;;;;;1.70;1.60;;;24.00;63.00;;;;;;5075382;28;20480;-89
2021/05/18 07:08:21;;;;;;;1.40;1.30;;;24.00;63.00;;;;;;5075033;28;20476;-88
2021/05/18 07:10:49;;;;;;;1.60;1.50;;;24.00;63.00;;;;;;5075582;28;20818;-88
2021/05/18 07:13:15;;;;;;;1.20;1.10;;;24.00;62.90;;;;;;5074926;28;20446;-88
2021/05/18 07:15:42;;;;;;;4.33;1.40;;;24.00;62.90;;;;;;5074831;28;20970;-88
2021/05/18 07:18:09;;;;;;;1.80;1.70;;;24.00;62.90;;;;;;5074840;28;21015;-88
2021/05/18 07:20:36;;;;;;;1.50;1.40;;;24.00;62.90;;;;;;5075132;28;20537;-89
2021/05/18 07:23:07;;;;;;;1.60;1.50;;;24.00;62.90;;;;;;5074732;28;20536;-88
2021/05/18 07:25:34;;;;;;;2.07;1.30;;;24.00;62.90;;;;;;5074414;28;20446;-88
2021/05/18 07:28:05;;;;;;;1.50;1.30;;;24.00;63.00;;;;;;5074661;28;20580;-89
2021/05/18 07:30:32;;;;;;;2.10;1.47;;;24.00;63.00;;;;;;5074922;28;20427;-88
2021/05/18 07:32:59;;;;;;;3.13;1.57;;;24.00;63.00;;;;;;5074843;28;20448;-88
2021/05/18 07:35:25;;;;;;;1.50;1.30;;;24.00;63.00;;;;;;5074815;28;20447;-88
2021/05/18 07:37:52;;;;;;;2.30;1.37;;;24.00;63.00;;;;;;5074941;28;20921;-88
2021/05/18 07:40:19;;;;;;;1.40;1.30;;;24.00;63.00;;;;;;5074668;28;20535;-88
2021/05/18 07:42:46;;;;;;;2.80;1.30;;;24.00;63.00;;;;;;5074467;28;20797;-88
2021/05/18 07:45:14;;;;;;;1.60;1.30;;;24.00;63.00;;;;;;5074357;28;20441;-88
2021/05/18 07:47:41;;;;;;;1.50;1.40;;;24.00;62.90;;;;;;5074324;28;20495;-88
2021/05/18 07:50:10;;;;;;;1.50;1.40;;;24.00;63.00;;;;;;5074201;28;20505;-88
2021/05/18 08:00:54;;;;;;;2.37;2.10;;;24.00;62.80;;;;;;5074434;28;20400;-88
2021/05/18 08:06:05;;;;;;;1.77;1.67;;;24.00;63.00;;;;;;5074049;28;20464;-88
2021/05/18 08:08:31;;;;;;;2.07;1.90;;;24.00;63.00;;;;;;5074650;28;20485;-88
2021/05/18 08:11:01;;;;;;;3.13;2.33;;;24.00;63.00;;;;;;5074097;28;20453;-88
2021/05/18 08:13:28;;;;;;;1.93;1.83;;;24.00;63.00;;;;;;5074076;28;20437;-88
2021/05/18 08:21:53;;;;;;;3.43;1.83;;;24.00;62.90;;;;;;5072981;28;20433;-88
2021/05/18 10:35:46;;;;;;;2.00;1.90;;;24.10;62.50;;;;;;5075897;28;20436;-89
2021/05/18 10:38:19;;;;;;;1.53;1.43;;;24.10;62.50;;;;;;5075797;28;20441;-89
2021/05/18 10:40:46;;;;;;;1.90;1.80;;;24.10;62.60;;;;;;5075790;28;20465;-89
2021/05/18 10:43:26;;;;;;;1.83;1.73;;;24.10;62.50;;;;;;5075563;28;20447;-89
2021/05/18 10:46:25;;;;;;;1.70;1.60;;;24.10;62.40;;;;;;5075452;28;20524;-89
2021/05/18 10:48:59;;;;;;;1.97;1.87;;;24.10;62.50;;;;;;5075876;28;20500;-89
2021/05/18 10:51:35;;;;;;;1.60;1.50;;;24.10;62.50;;;;;;5076037;28;20448;-89
2021/05/18 10:54:18;;;;;;;1.60;1.50;;;24.10;62.60;;;;;;5076225;28;20924;-89
2021/05/18 10:57:13;;;;;;;1.73;1.63;;;24.10;62.50;;;;;;5077083;28;20429;-89
2021/05/18 10:59:43;;;;;;;1.70;1.60;;;24.00;62.40;;;;;;5075505;28;20450;-89
2021/05/18 11:02:12;;;;;;;2.03;1.93;;;24.00;62.50;;;;;;5076704;28;20451;-89
2021/05/18 11:04:41;;;;;;;2.00;1.90;;;24.00;62.60;;;;;;5076403;28;20482;-89
2021/05/18 11:07:09;;;;;;;1.73;1.63;;;24.00;62.50;;;;;;5075393;28;20470;-89
2021/05/18 11:09:37;;;;;;;2.17;1.97;;;24.00;62.80;;;;;;5074970;28;20468;-88
2021/05/18 11:12:06;;;;;;;1.70;1.60;;;24.00;62.70;;;;;;5075203;28;20989;-89
2021/05/18 11:14:34;;;;;;;1.70;1.40;;;24.00;62.80;;;;;;5075218;28;20547;-88
2021/05/18 11:17:27;;;;;;;1.80;1.70;;;24.00;62.60;;;;;;5074826;28;20451;-90
2021/05/18 11:20:07;;;;;;;1.80;1.70;;;24.10;62.50;;;;;;5071034;28;20449;-88
2021/05/18 11:25:47;;;;;;;3.47;1.53;;;24.00;62.40;;;;;;5074913;28;20502;-88
2021/05/18 11:28:16;;;;;;;2.13;2.03;;;24.00;62.70;;;;;;5074835;28;20480;-89
2021/05/18 11:30:45;;;;;;;1.83;1.73;;;24.00;63.40;;;;;;5081923;28;20532;-89
2021/05/18 11:33:12;;;;;;;1.80;1.70;;;24.00;63.10;;;;;;5077288;28;20473;-89
2021/05/18 11:35:39;;;;;;;1.67;1.57;;;24.00;63.20;;;;;;5074618;28;20546;-88
2021/05/18 11:38:11;;;;;;;1.97;1.87;;;24.00;63.20;;;;;;5074325;28;20441;-88
2021/05/18 11:40:47;;;;;;;1.60;1.50;;;24.00;62.90;;;;;;5075181;28;20457;-88
2021/05/18 11:43:19;;;;;;;1.77;1.63;;;24.00;62.90;;;;;;5074728;28;20515;-87
2021/05/18 11:45:47;;;;;;;2.47;1.43;;;24.00;63.00;;;;;;5074247;28;20444;-87
2021/05/18 11:48:19;;;;;;;1.70;1.60;;;24.00;63.10;;;;;;5073916;28;20902;-88
2021/05/18 11:50:46;;;;;;;1.60;1.50;;;24.10;63.40;;;;;;5074409;28;20787;-88
2021/05/18 11:53:35;;;;;;;1.50;1.40;;;24.10;63.40;;;;;;5074319;28;20472;-88
2021/05/18 11:56:16;;;;;;;1.53;1.43;;;24.10;63.30;;;;;;5068644;28;20857;-88
2021/05/18 11:58:42;;;;;;;1.43;1.33;;;24.20;63.70;;;;;;5073913;28;20445;-88
2021/05/18 12:01:09;;;;;;;1.30;1.20;;;24.20;63.80;;;;;;5073885;28;20444;-88
2021/05/18 12:03:36;;;;;;;1.53;1.43;;;24.20;63.70;;;;;;5073983;28;20441;-88
2021/05/18 12:06:06;;;;;;;1.60;1.50;;;24.30;63.90;;;;;;5074184;28;20470;-88
2021/05/18 12:08:34;;;;;;;1.43;1.33;;;24.30;63.90;;;;;;5074009;28;20486;-88
2021/05/18 12:11:15;;;;;;;1.40;1.30;;;24.40;63.90;;;;;;5073645;28;20448;-88
2021/05/18 12:13:43;;;;;;;2.30;1.87;;;24.40;63.80;;;;;;5073842;28;20528;-88
2021/05/18 12:16:12;;;;;;;1.50;1.40;;;24.40;63.90;;;;;;5074023;28;20498;-88
2021/05/18 12:18:41;;;;;;;1.43;1.33;;;24.40;63.90;;;;;;5073916;28;20444;-88
2021/05/18 12:21:13;;;;;;;1.30;1.20;;;24.40;63.90;;;;;;5073996;28;20446;-88
2021/05/18 12:23:40;;;;;;;1.57;1.47;;;24.40;63.80;;;;;;5073760;28;20893;-89
2021/05/18 12:26:19;;;;;;;1.33;1.23;;;24.40;63.80;;;;;;5073648;28;20975;-88
2021/05/18 12:28:55;;;;;;;1.50;1.40;;;24.50;63.80;;;;;;5073813;28;20495;-88
2021/05/18 12:31:30;;;;;;;1.57;1.47;;;24.50;63.90;;;;;;5073957;28;20475;-88
2021/05/18 12:33:57;;;;;;;1.40;1.30;;;24.50;63.90;;;;;;5073578;28;20429;-88
2021/05/18 12:36:25;;;;;;;1.40;1.30;;;24.50;64.80;;;;;;5073532;28;20544;-88
2021/05/18 12:39:09;;;;;;;1.93;1.57;;;24.50;63.90;;;;;;5073477;28;20478;-88
2021/05/18 12:41:49;;;;;;;1.23;1.13;;;24.60;63.90;;;;;;5073432;28;20521;-88
2021/05/18 12:44:16;;;;;;;1.43;1.30;;;24.50;63.90;;;;;;5073285;28;20446;-87
2021/05/18 12:46:57;;;;;;;1.40;1.30;;;24.50;63.90;;;;;;5073318;28;20445;-88
2021/05/18 12:49:30;;;;;;;1.50;1.40;;;24.60;63.90;;;;;;5073059;28;20572;-88
2021/05/18 12:52:04;;;;;;;1.50;1.40;;;24.50;63.90;;;;;;5073251;28;20936;-88
2021/05/18 12:54:43;;;;;;;1.93;1.43;;;24.50;63.90;;;;;;5072999;28;20446;-89
2021/05/18 12:57:10;;;;;;;1.80;1.70;;;24.60;63.90;;;;;;5073043;28;20445;-88
2021/05/18 13:00:06;;;;;;;1.37;1.27;;;24.60;64.00;;;;;;5073228;28;20928;-88
2021/05/18 13:02:41;;;;;;;1.40;1.30;;;24.60;63.90;;;;;;5073245;28;20530;-88
2021/05/18 13:05:17;;;;;;;1.63;1.50;;;24.60;63.80;;;;;;5072901;28;20483;-89
2021/05/18 13:08:02;;;;;;;1.33;1.23;;;24.60;63.90;;;;;;5073463;28;20841;-88
2021/05/18 13:10:38;;;;;;;1.40;1.30;;;24.50;63.80;;;;;;5073165;28;20447;-88
2021/05/18 13:13:05;;;;;;;1.70;1.60;;;24.50;63.90;;;;;;5073617;28;20843;-88
2021/05/18 13:15:33;;;;;;;1.60;1.50;;;24.50;63.80;;;;;;5073149;28;20440;-88
2021/05/18 13:18:02;;;;;;;1.57;1.47;;;24.50;63.80;;;;;;5073447;28;20453;-88
2021/05/18 13:20:39;;;;;;;1.70;1.60;;;24.50;63.80;;;;;;5073199;28;20778;-88
2021/05/18 13:23:09;;;;;;;1.43;1.33;;;24.50;63.70;;;;;;5075141;28;20482;-89
2021/05/18 13:28:21;;;;;;;1.40;1.30;;;24.50;63.70;;;;;;5077106;28;21015;-88
2021/05/18 13:30:48;;;;;;;1.50;1.40;;;24.50;63.80;;;;;;5077048;28;20457;-90
2021/05/18 13:33:14;;;;;;;1.50;1.37;;;24.50;63.70;;;;;;5077374;28;20536;-91
2021/05/18 13:35:42;;;;;;;1.30;1.20;;;24.50;63.70;;;;;;5077182;28;20464;-91
2021/05/18 13:38:08;;;;;;;1.47;1.10;;;24.50;63.60;;;;;;5090714;28;20442;-91
2021/05/18 13:40:35;;;;;;;1.60;1.50;;;24.40;63.60;;;;;;5076964;28;20544;-92
2021/05/18 13:43:02;;;;;;;1.50;1.20;;;24.40;63.60;;;;;;5077074;28;20449;-91
2021/05/18 13:45:29;;;;;;;1.60;1.40;;;24.40;63.70;;;;;;5076953;28;20441;-91
2021/05/18 13:47:58;;;;;;;1.23;1.13;;;24.40;63.80;;;;;;5076540;28;20567;-91
2021/05/18 13:50:25;;;;;;;1.47;1.37;;;24.40;63.90;;;;;;5077033;28;20446;-91
2021/05/18 13:52:52;;;;;;;1.57;1.33;;;24.40;63.80;;;;;;5076768;28;20439;-91
2021/05/18 13:55:19;;;;;;;1.93;1.60;;;24.40;63.90;;;;;;5076905;28;20951;-91
2021/05/18 13:57:45;;;;;;;3.50;1.30;;;24.40;63.80;;;;;;5076822;28;20933;-91
2021/05/18 14:00:14;;;;;;;4.30;1.43;;;24.30;64.60;;;;;;5077071;28;20537;-91
2021/05/18 14:02:41;;;;;;;1.50;1.30;;;24.40;64.00;;;;;;5076856;28;20527;-91
2021/05/18 14:05:10;;;;;;;1.77;1.40;;;24.30;63.80;;;;;;5076449;28;20444;-91
2021/05/18 14:11:06;;;;;;;1.37;1.20;;;24.30;63.70;;;;;;5072651;28;20438;-91
2021/05/18 14:13:37;;;;;;;1.83;1.50;;;24.30;63.90;;;;;;5074987;28;20438;-86
2021/05/18 14:16:04;;;;;;;2.10;1.20;;;24.30;64.10;;;;;;5075877;28;20453;-90
2021/05/18 14:18:32;;;;;;;1.77;1.33;;;24.30;63.90;;;;;;5076025;28;20531;-92
2021/05/18 14:21:00;;;;;;;2.07;1.30;;;24.30;63.90;;;;;;5075604;28;20445;-90
2021/05/18 14:23:32;;;;;;;1.47;1.37;;;24.30;63.90;;;;;;5076745;28;20454;-91
2021/05/18 14:25:59;;;;;;;1.60;1.40;;;24.30;63.90;;;;;;5076222;28;20445;-90
2021/05/18 14:28:25;;;;;;;1.70;1.53;;;24.30;63.90;;;;;;5076263;28;20588;-90
2021/05/18 14:30:51;;;;;;;2.23;1.20;;;24.30;63.80;;;;;;5076082;28;20801;-91
2021/05/18 14:33:18;;;;;;;1.37;1.27;;;24.30;63.80;;;;;;5075647;28;20534;-87
2021/05/18 14:35:44;;;;;;;1.77;1.40;;;24.30;63.80;;;;;;5075253;28;20461;-91
2021/05/18 14:38:13;;;;;;;1.57;1.47;;;24.30;63.80;;;;;;5076152;28;20899;-91
2021/05/18 14:40:52;;;;;;;1.23;1.13;;;24.30;63.80;;;;;;5075529;28;20473;-93
2021/05/18 14:43:48;;;;;;;1.30;1.20;;;24.30;63.70;;;;;;5076155;28;20502;-91
2021/05/18 14:46:19;;;;;;;1.33;1.23;;;24.30;63.70;;;;;;5077913;28;20454;-86
2021/05/18 14:54:34;;;;;;;1.37;1.27;;;24.30;63.90;;;;;;5075759;28;20412;-88
2021/05/18 14:57:02;;;;;;;1.30;1.20;;;24.30;63.90;;;;;;5075602;28;20491;-88
2021/05/18 14:59:29;;;;;;;1.40;1.30;;;24.40;64.80;;;;;;5073022;28;20485;-92
2021/05/18 15:01:55;;;;;;;1.30;1.20;;;24.30;64.70;;;;;;5064996;28;20480;-89
2021/05/18 15:04:22;;;;;;;1.30;1.10;;;24.40;63.90;;;;;;5056190;28;20507;-93
2021/05/18 15:06:48;;;;;;;1.27;1.17;;;24.40;63.90;;;;;;5056598;28;20582;-93
2021/05/18 15:09:15;;;;;;;1.40;1.30;;;24.40;64.70;;;;;;5059083;28;20489;-92
2021/05/18 15:11:42;;;;;;;1.20;1.10;;;24.40;63.90;;;;;;5058431;28;20462;-93
2021/05/18 15:14:09;;;;;;;1.43;1.10;;;24.40;63.80;;;;;;5057131;28;20462;-89
2021/05/18 15:16:36;;;;;;;1.10;1.00;;;24.40;63.90;;;;;;5075555;28;20459;-90
2021/05/18 15:19:06;;;;;;;1.83;1.07;;;24.30;63.70;;;;;;5075144;28;20534;-90
2021/05/18 15:21:33;;;;;;;1.80;1.10;;;24.40;63.80;;;;;;5078484;28;20526;-91
2021/05/18 15:24:00;;;;;;;1.23;1.13;;;24.40;63.80;;;;;;5069889;28;20821;-91
2021/05/18 15:26:26;;;;;;;1.20;1.10;;;24.40;63.80;;;;;;5055526;28;20460;-90
2021/05/18 15:28:52;;;;;;;1.80;1.30;;;24.30;63.60;;;;;;5054520;28;20491;-91
2021/05/18 15:31:20;;;;;;;1.37;1.00;;;24.30;63.60;;;;;;5055002;28;20446;-91
2021/05/18 15:33:46;;;;;;;1.50;1.10;;;24.30;63.60;;;;;;5060458;28;20508;-88
2021/05/18 15:36:15;;;;;;;1.10;1.00;;;24.30;63.60;;;;;;5054768;28;20467;-91
2021/05/18 15:38:43;;;;;;;2.77;1.47;;;24.30;63.60;;;;;;5055202;28;20480;-88
2021/05/18 15:41:09;;;;;;;1.20;1.10;;;24.30;63.60;;;;;;5054721;28;20454;-90
2021/05/18 15:43:36;;;;;;;1.13;1.00;;;24.30;63.60;;;;;;5055411;28;20932;-91
2021/05/18 15:46:03;;;;;;;1.50;1.40;;;24.30;63.60;;;;;;5054444;28;20449;-91
2021/05/18 15:48:30;;;;;;;1.40;1.30;;;24.30;63.60;;;;;;5055590;28;20501;-91
2021/05/18 15:50:57;;;;;;;1.20;1.10;;;24.30;63.60;;;;;;5054982;28;20541;-92
2021/05/18 15:53:23;;;;;;;1.13;1.03;;;24.30;63.60;;;;;;5054761;28;20457;-91
2021/05/18 15:55:50;;;;;;;1.47;1.37;;;24.30;63.60;;;;;;5055795;28;20448;-91
2021/05/18 15:58:16;;;;;;;1.33;1.10;;;24.30;63.70;;;;;;5062234;28;20446;-90
2021/05/18 16:00:46;;;;;;;1.13;1.03;;;24.30;63.60;;;;;;5054508;28;20459;-92
2021/05/18 16:03:13;;;;;;;1.40;1.20;;;24.30;63.60;;;;;;5056462;28;20462;-90
2021/05/18 16:05:44;;;;;;;1.00;0.90;;;24.30;63.60;;;;;;5057140;28;20494;-93
2021/05/18 16:10:52;;;;;;;1.40;1.30;;;24.30;63.50;;;;;;5054450;28;20829;-91
2021/05/18 16:13:18;;;;;;;1.83;1.30;;;24.30;63.60;;;;;;5054645;28;20443;-92
2021/05/18 16:15:45;;;;;;;1.20;1.10;;;24.30;63.50;;;;;;5054675;28;20508;-86
2021/05/18 16:18:11;;;;;;;0.93;0.80;;;24.30;63.50;;;;;;5054044;28;20799;-92
2021/05/18 16:20:40;;;;;;;1.67;1.07;;;24.30;63.60;;;;;;5054752;28;20440;-89
2021/05/18 16:23:07;;;;;;;1.13;1.03;;;24.30;63.30;;;;;;5055563;28;20517;-87
2021/05/18 16:25:33;;;;;;;1.10;1.00;;;24.30;63.50;;;;;;5054556;28;20526;-86
2021/05/18 16:27:59;;;;;;;1.20;1.10;;;24.30;64.30;;;;;;5053965;28;20581;-91
2021/05/18 16:30:26;;;;;;;1.60;1.17;;;24.40;63.60;;;;;;5053584;28;20933;-85
2021/05/18 16:32:52;;;;;;;1.20;1.10;;;24.30;63.40;;;;;;5053815;28;20939;-85
2021/05/18 16:35:19;;;;;;;1.93;1.10;;;24.30;63.30;;;;;;5053504;28;20468;-84
2021/05/18 16:37:46;;;;;;;1.20;1.10;;;24.30;63.20;;;;;;5053726;28;20500;-84
2021/05/18 16:40:14;;;;;;;2.23;1.10;;;24.30;63.10;;;;;;5053591;28;20461;-85
2021/05/18 16:42:41;;;;;;;1.20;1.07;;;24.30;63.10;;;;;;5053775;28;20880;-85
2021/05/18 16:45:08;;;;;;;1.50;1.13;;;24.30;63.10;;;;;;5053345;28;20437;-83
2021/05/18 16:47:35;;;;;;;2.30;0.90;;;24.20;63.80;;;;;;5053487;28;20951;-85
2021/05/18 16:50:02;;;;;;;1.50;1.20;;;24.40;63.10;;;;;;5053372;28;20474;-89
2021/05/18 16:52:28;;;;;;;1.23;0.90;;;24.20;62.90;;;;;;5053518;28;20439;-85
2021/05/18 16:54:55;;;;;;;1.20;1.00;;;24.20;62.90;;;;;;5053449;28;20527;-85
2021/05/18 16:57:21;;;;;;;1.77;1.00;;;24.40;63.10;;;;;;5052383;28;20442;-85
2021/05/18 16:59:47;;;;;;;1.30;1.00;;;24.20;62.90;;;;;;5053400;28;20937;-85
2021/05/18 17:02:14;;;;;;;1.00;0.83;;;24.20;62.80;;;;;;5053244;28;20461;-84
2021/05/18 17:04:40;;;;;;;2.00;1.23;;;24.20;62.80;;;;;;5053261;28;20442;-84
2021/05/18 17:07:06;;;;;;;1.17;1.00;;;24.20;62.80;;;;;;5058518;28;20996;-84
2021/05/18 17:09:33;;;;;;;1.10;0.90;;;24.20;62.90;;;;;;5072804;28;20847;-84
2021/05/18 17:12:02;;;;;;;1.37;1.27;;;24.20;63.00;;;;;;5073177;28;20453;-88
2021/05/18 17:14:28;;;;;;;1.10;0.90;;;24.20;63.00;;;;;;5073743;28;20804;-88
2021/05/18 17:16:55;;;;;;;1.20;1.10;;;24.20;63.00;;;;;;5077293;28;20510;-86
2021/05/18 17:19:22;;;;;;;1.10;1.00;;;24.20;62.90;;;;;;5077676;28;20444;-86
2021/05/18 17:21:48;;;;;;;1.40;1.10;;;24.20;62.80;;;;;;5075664;28;20844;-85
2021/05/18 17:24:15;;;;;;;1.97;1.00;;;24.20;62.80;;;;;;5073740;28;20445;-88
2021/05/18 17:26:41;;;;;;;1.30;1.10;;;24.20;63.80;;;;;;5073584;28;20799;-87
2021/05/18 17:29:10;;;;;;;1.60;1.20;;;24.20;62.90;;;;;;5073175;28;20641;-87